sensor_id;sensor_type;location;lat;lon;timestamp;pressure;altitude;pressure_sealevel;temperature;humidity
9822;BME280;4950;46.042;14.472;2023-05-01T00:01:24;98146.38;;;14.34;55.31
9822;BME280;4950;46.042;14.472;2023-05-01T00:03:51;98138.53;;;14.34;55.54
9822;BME280;4950;46.042;14.472;2023-05-01T00:06:18;98138.31;;;14.29;55.87
9822;BME280;4950;46.042;14.472;2023-05-01T00:08:46;98133.88;;;14.29;55.68
9822;BME280;4950;46.042;14.472;2023-05-01T00:11:13;98130.88;;;14.26;55.86
9822;BME280;4950;46.042;14.472;2023-05-01T00:13:40;98133.06;;;14.22;55.88
9822;BME280;4950;46.042;14.472;2023-05-01T00:16:07;98128.38;;;14.17;56.07
9822;BME280;4950;46.042;14.472;2023-05-01T00:18:34;98129.41;;;14.16;56.07
9822;BME280;4950;46.042;14.472;2023-05-01T00:21:00;98123.94;;;14.11;56.45
9822;BME280;4950;46.042;14.472;2023-05-01T00:23:27;98117.09;;;14.10;56.28
9822;BME280;4950;46.042;14.472;2023-05-01T00:25:55;98121.09;;;14.06;56.30
9822;BME280;4950;46.042;14.472;2023-05-01T00:28:22;98113.19;;;13.99;56.58
9822;BME280;4950;46.042;14.472;2023-05-01T00:30:48;98120.41;;;13.97;56.80
9822;BME280;4950;46.042;14.472;2023-05-01T00:33:15;98119.00;;;13.95;57.16
9822;BME280;4950;46.042;14.472;2023-05-01T00:35:42;98115.59;;;13.94;56.98
9822;BME280;4950;46.042;14.472;2023-05-01T00:38:09;98124.03;;;13.96;56.24
9822;BME280;4950;46.042;14.472;2023-05-01T00:40:40;98119.75;;;13.89;57.01
9822;BME280;4950;46.042;14.472;2023-05-01T00:43:09;98122.13;;;13.83;57.73
9822;BME280;4950;46.042;14.472;2023-05-01T00:45:36;98117.25;;;13.80;57.61
9822;BME280;4950;46.042;14.472;2023-05-01T00:48:03;98122.69;;;13.79;57.77
9822;BME280;4950;46.042;14.472;2023-05-01T00:50:30;98116.66;;;13.78;58.29
9822;BME280;4950;46.042;14.472;2023-05-01T00:52:57;98123.69;;;13.78;58.09
9822;BME280;4950;46.042;14.472;2023-05-01T00:55:25;98120.63;;;13.74;58.63
9822;BME280;4950;46.042;14.472;2023-05-01T00:57:52;98128.66;;;13.73;59.03
9822;BME280;4950;46.042;14.472;2023-05-01T01:00:22;98128.59;;;13.66;58.90
9822;BME280;4950;46.042;14.472;2023-05-01T01:02:49;98122.75;;;13.64;59.21
9822;BME280;4950;46.042;14.472;2023-05-01T01:05:16;98136.16;;;13.61;59.50
9822;BME280;4950;46.042;14.472;2023-05-01T01:07:48;98121.53;;;13.60;59.70
9822;BME280;4950;46.042;14.472;2023-05-01T01:10:25;98127.50;;;13.54;59.79
9822;BME280;4950;46.042;14.472;2023-05-01T01:12:59;98126.00;;;13.45;60.42
9822;BME280;4950;46.042;14.472;2023-05-01T01:15:33;98126.00;;;13.45;60.87
9822;BME280;4950;46.042;14.472;2023-05-01T01:18:06;98118.75;;;13.40;60.90
9822;BME280;4950;46.042;14.472;2023-05-01T01:20:37;98118.31;;;13.36;60.85
9822;BME280;4950;46.042;14.472;2023-05-01T01:23:26;98126.94;;;13.37;60.98
9822;BME280;4950;46.042;14.472;2023-05-01T01:26:12;98113.19;;;13.28;61.38
9822;BME280;4950;46.042;14.472;2023-05-01T01:31:52;98122.03;;;13.12;61.71
9822;BME280;4950;46.042;14.472;2023-05-01T01:34:26;98118.56;;;13.05;61.84
9822;BME280;4950;46.042;14.472;2023-05-01T01:36:59;98111.09;;;13.02;62.36
9822;BME280;4950;46.042;14.472;2023-05-01T01:39:29;98121.06;;;12.98;62.42
9822;BME280;4950;46.042;14.472;2023-05-01T01:42:06;98111.22;;;12.94;62.91
9822;BME280;4950;46.042;14.472;2023-05-01T01:44:37;98112.19;;;12.93;62.74
9822;BME280;4950;46.042;14.472;2023-05-01T01:47:09;98109.69;;;12.84;62.95
9822;BME280;4950;46.042;14.472;2023-05-01T01:49:43;98113.94;;;12.86;62.86
9822;BME280;4950;46.042;14.472;2023-05-01T01:52:12;98110.88;;;12.82;62.99
9822;BME280;4950;46.042;14.472;2023-05-01T01:54:44;98114.03;;;12.77;63.33
9822;BME280;4950;46.042;14.472;2023-05-01T01:57:13;98108.72;;;12.71;63.88
9822;BME280;4950;46.042;14.472;2023-05-01T01:59:41;98107.94;;;12.70;63.83
9822;BME280;4950;46.042;14.472;2023-05-01T02:02:10;98111.50;;;12.69;63.89
9822;BME280;4950;46.042;14.472;2023-05-01T02:04:39;98106.84;;;12.64;64.09
9822;BME280;4950;46.042;14.472;2023-05-01T02:07:08;98112.25;;;12.63;64.59
9822;BME280;4950;46.042;14.472;2023-05-01T02:09:36;98111.78;;;12.59;64.32
9822;BME280;4950;46.042;14.472;2023-05-01T02:12:04;98105.53;;;12.54;64.42
9822;BME280;4950;46.042;14.472;2023-05-01T02:14:32;98103.44;;;12.49;64.63
9822;BME280;4950;46.042;14.472;2023-05-01T02:17:00;98102.38;;;12.43;64.72
9822;BME280;4950;46.042;14.472;2023-05-01T02:19:27;98105.06;;;12.35;64.91
9822;BME280;4950;46.042;14.472;2023-05-01T02:21:56;98101.84;;;12.33;65.05
9822;BME280;4950;46.042;14.472;2023-05-01T02:24:24;98096.19;;;12.30;64.93
9822;BME280;4950;46.042;14.472;2023-05-01T02:26:53;98097.91;;;12.22;65.05
9822;BME280;4950;46.042;14.472;2023-05-01T02:29:23;98094.41;;;12.15;64.98
9822;BME280;4950;46.042;14.472;2023-05-01T02:31:51;98086.22;;;12.18;64.72
9822;BME280;4950;46.042;14.472;2023-05-01T02:34:18;98085.25;;;12.19;64.47
9822;BME280;4950;46.042;14.472;2023-05-01T02:36:45;98089.28;;;12.22;64.34
9822;BME280;4950;46.042;14.472;2023-05-01T02:39:13;98079.03;;;12.20;64.33
9822;BME280;4950;46.042;14.472;2023-05-01T02:41:40;98075.00;;;12.18;64.28
9822;BME280;4950;46.042;14.472;2023-05-01T02:44:08;98077.44;;;12.19;64.35
9822;BME280;4950;46.042;14.472;2023-05-01T02:46:36;98075.44;;;12.21;64.19
9822;BME280;4950;46.042;14.472;2023-05-01T02:49:04;98078.84;;;12.22;63.94
9822;BME280;4950;46.042;14.472;2023-05-01T02:51:31;98071.94;;;12.14;64.37
9822;BME280;4950;46.042;14.472;2023-05-01T02:54:00;98076.34;;;12.14;64.48
9822;BME280;4950;46.042;14.472;2023-05-01T02:56:29;98073.56;;;12.15;64.54
9822;BME280;4950;46.042;14.472;2023-05-01T02:58:55;98079.94;;;12.13;64.89
9822;BME280;4950;46.042;14.472;2023-05-01T03:01:22;98074.28;;;12.09;65.24
9822;BME280;4950;46.042;14.472;2023-05-01T03:03:49;98078.50;;;12.10;65.32
9822;BME280;4950;46.042;14.472;2023-05-01T03:06:15;98079.50;;;12.09;65.30
9822;BME280;4950;46.042;14.472;2023-05-01T03:08:43;98078.50;;;12.10;65.32
9822;BME280;4950;46.042;14.472;2023-05-01T03:11:11;98083.25;;;12.07;65.52
9822;BME280;4950;46.042;14.472;2023-05-01T03:13:39;98083.34;;;11.98;65.87
9822;BME280;4950;46.042;14.472;2023-05-01T03:16:06;98084.06;;;11.92;66.10
9822;BME280;4950;46.042;14.472;2023-05-01T03:18:33;98075.13;;;11.86;66.10
9822;BME280;4950;46.042;14.472;2023-05-01T03:20:59;98075.22;;;11.78;66.78
9822;BME280;4950;46.042;14.472;2023-05-01T03:23:26;98071.97;;;11.76;66.86
9822;BME280;4950;46.042;14.472;2023-05-01T03:25:52;98075.38;;;11.77;67.12
9822;BME280;4950;46.042;14.472;2023-05-01T03:28:20;98077.06;;;11.70;67.93
9822;BME280;4950;46.042;14.472;2023-05-01T03:30:51;98080.03;;;11.66;68.21
9822;BME280;4950;46.042;14.472;2023-05-01T03:33:18;98080.38;;;11.63;68.07
9822;BME280;4950;46.042;14.472;2023-05-01T03:35:44;98079.09;;;11.59;68.61
9822;BME280;4950;46.042;14.472;2023-05-01T03:38:11;98079.63;;;11.55;68.87
9822;BME280;4950;46.042;14.472;2023-05-01T03:40:37;98084.03;;;11.54;68.86
9822;BME280;4950;46.042;14.472;2023-05-01T03:43:04;98084.38;;;11.51;68.68
9822;BME280;4950;46.042;14.472;2023-05-01T03:45:30;98078.38;;;11.51;69.00
9822;BME280;4950;46.042;14.472;2023-05-01T03:47:59;98083.56;;;11.51;68.79
9822;BME280;4950;46.042;14.472;2023-05-01T03:50:25;98096.91;;;11.48;69.19
9822;BME280;4950;46.042;14.472;2023-05-01T03:52:52;98089.81;;;11.41;69.34
9822;BME280;4950;46.042;14.472;2023-05-01T03:55:18;98092.94;;;11.37;69.86
9822;BME280;4950;46.042;14.472;2023-05-01T03:57:45;98096.75;;;11.26;70.34
9822;BME280;4950;46.042;14.472;2023-05-01T04:00:12;98097.09;;;11.23;70.26
9822;BME280;4950;46.042;14.472;2023-05-01T04:02:39;98096.75;;;11.26;70.29
9822;BME280;4950;46.042;14.472;2023-05-01T04:05:08;98087.97;;;11.27;69.82
9822;BME280;4950;46.042;14.472;2023-05-01T04:07:34;98091.53;;;11.26;70.15
9822;BME280;4950;46.042;14.472;2023-05-01T04:10:01;98087.16;;;11.26;70.39
9822;BME280;4950;46.042;14.472;2023-05-01T04:12:28;98084.91;;;11.23;70.63
9822;BME280;4950;46.042;14.472;2023-05-01T04:14:55;98087.03;;;11.20;71.42
9822;BME280;4950;46.042;14.472;2023-05-01T04:17:22;98090.28;;;11.22;71.20
9822;BME280;4950;46.042;14.472;2023-05-01T04:19:49;98086.19;;;11.27;71.41
9822;BME280;4950;46.042;14.472;2023-05-01T04:22:17;98086.50;;;11.24;71.12
9822;BME280;4950;46.042;14.472;2023-05-01T04:24:44;98090.09;;;11.23;71.12
9822;BME280;4950;46.042;14.472;2023-05-01T04:27:11;98082.16;;;11.25;71.33
9822;BME280;4950;46.042;14.472;2023-05-01T04:29:37;98083.41;;;11.29;71.15
9822;BME280;4950;46.042;14.472;2023-05-01T04:32:04;98080.97;;;11.27;70.84
9822;BME280;4950;46.042;14.472;2023-05-01T04:34:30;98083.28;;;11.22;71.13
9822;BME280;4950;46.042;14.472;2023-05-01T04:36:57;98084.06;;;11.31;70.72
9822;BME280;4950;46.042;14.472;2023-05-01T04:39:25;98082.41;;;11.30;71.21
9822;BME280;4950;46.042;14.472;2023-05-01T04:41:52;98089.25;;;11.31;70.96
9822;BME280;4950;46.042;14.472;2023-05-01T04:44:18;98092.19;;;11.28;71.00
9822;BME280;4950;46.042;14.472;2023-05-01T04:46:45;98091.53;;;11.26;71.01
9822;BME280;4950;46.042;14.472;2023-05-01T04:49:11;98091.47;;;11.34;71.02
9822;BME280;4950;46.042;14.472;2023-05-01T04:51:38;98082.34;;;11.38;70.71
9822;BME280;4950;46.042;14.472;2023-05-01T04:54:05;98094.38;;;11.39;70.85
9822;BME280;4950;46.042;14.472;2023-05-01T04:56:33;98096.44;;;11.44;70.71
9822;BME280;4950;46.042;14.472;2023-05-01T04:59:00;98091.53;;;11.49;71.06
9822;BME280;4950;46.042;14.472;2023-05-01T05:01:27;98088.16;;;11.49;71.62
9822;BME280;4950;46.042;14.472;2023-05-01T05:03:54;98090.53;;;11.50;71.33
9822;BME280;4950;46.042;14.472;2023-05-01T05:06:20;98087.16;;;11.50;71.85
9822;BME280;4950;46.042;14.472;2023-05-01T05:08:47;98089.13;;;11.48;71.62
9822;BME280;4950;46.042;14.472;2023-05-01T05:11:16;98092.00;;;11.53;71.48
9822;BME280;4950;46.042;14.472;2023-05-01T05:13:44;98084.66;;;11.56;71.12
9822;BME280;4950;46.042;14.472;2023-05-01T05:16:11;98091.13;;;11.60;70.95
9822;BME280;4950;46.042;14.472;2023-05-01T05:18:38;98080.56;;;11.62;70.63
9822;BME280;4950;46.042;14.472;2023-05-01T05:21:05;98085.56;;;11.63;70.41
9822;BME280;4950;46.042;14.472;2023-05-01T05:23:32;98089.88;;;11.71;70.26
9822;BME280;4950;46.042;14.472;2023-05-01T05:25:59;98082.22;;;11.78;70.04
9822;BME280;4950;46.042;14.472;2023-05-01T05:28:27;98090.09;;;11.84;69.48
9822;BME280;4950;46.042;14.472;2023-05-01T05:30:55;98087.63;;;11.91;69.11
9822;BME280;4950;46.042;14.472;2023-05-01T05:33:22;98088.91;;;11.95;68.35
9822;BME280;4950;46.042;14.472;2023-05-01T05:35:49;98088.72;;;11.97;68.42
9822;BME280;4950;46.042;14.472;2023-05-01T05:38:16;98096.16;;;12.00;68.58
9822;BME280;4950;46.042;14.472;2023-05-01T05:40:42;98095.63;;;12.04;68.26
9822;BME280;4950;46.042;14.472;2023-05-01T05:43:09;98091.88;;;12.07;67.87
9822;BME280;4950;46.042;14.472;2023-05-01T05:45:36;98090.38;;;12.13;67.04
9822;BME280;4950;46.042;14.472;2023-05-01T05:48:04;98086.13;;;12.12;66.94
9822;BME280;4950;46.042;14.472;2023-05-01T05:50:31;98079.75;;;12.14;67.20
9822;BME280;4950;46.042;14.472;2023-05-01T05:52:57;98087.22;;;12.17;67.58
9822;BME280;4950;46.042;14.472;2023-05-01T05:55:24;98086.84;;;12.20;67.79
9822;BME280;4950;46.042;14.472;2023-05-01T05:57:51;98084.50;;;12.25;67.61
9822;BME280;4950;46.042;14.472;2023-05-01T06:00:18;98087.56;;;12.29;67.61
9822;BME280;4950;46.042;14.472;2023-05-01T06:02:45;98094.84;;;12.34;67.84
9822;BME280;4950;46.042;14.472;2023-05-01T06:05:13;98093.47;;;12.38;68.33
9822;BME280;4950;46.042;14.472;2023-05-01T06:07:40;98092.97;;;12.42;68.49
9822;BME280;4950;46.042;14.472;2023-05-01T06:10:07;98093.41;;;12.46;68.80
9822;BME280;4950;46.042;14.472;2023-05-01T06:12:34;98096.00;;;12.46;68.78
9822;BME280;4950;46.042;14.472;2023-05-01T06:15:00;98103.44;;;12.49;68.74
9822;BME280;4950;46.042;14.472;2023-05-01T06:17:27;98092.84;;;12.51;68.56
9822;BME280;4950;46.042;14.472;2023-05-01T06:19:54;98098.75;;;12.59;68.59
9822;BME280;4950;46.042;14.472;2023-05-01T06:22:22;98103.72;;;12.54;67.72
9822;BME280;4950;46.042;14.472;2023-05-01T06:24:48;98097.00;;;12.45;66.47
9822;BME280;4950;46.042;14.472;2023-05-01T06:27:15;98096.72;;;12.40;66.62
9822;BME280;4950;46.042;14.472;2023-05-01T06:29:41;98098.34;;;12.41;65.91
9822;BME280;4950;46.042;14.472;2023-05-01T06:32:08;98085.59;;;12.46;65.78
9822;BME280;4950;46.042;14.472;2023-05-01T06:34:35;98100.13;;;12.55;66.02
9822;BME280;4950;46.042;14.472;2023-05-01T06:37:01;98094.63;;;12.65;66.10
9822;BME280;4950;46.042;14.472;2023-05-01T06:39:30;98096.72;;;12.70;66.26
9822;BME280;4950;46.042;14.472;2023-05-01T06:41:57;98096.31;;;12.73;66.10
9822;BME280;4950;46.042;14.472;2023-05-01T06:44:24;98097.22;;;12.80;65.12
9822;BME280;4950;46.042;14.472;2023-05-01T06:46:50;98100.91;;;12.86;64.60
9822;BME280;4950;46.042;14.472;2023-05-01T06:49:17;98104.94;;;12.88;64.30
9822;BME280;4950;46.042;14.472;2023-05-01T06:51:43;98106.00;;;12.94;64.19
9822;BME280;4950;46.042;14.472;2023-05-01T06:54:10;98102.03;;;12.98;63.80
9822;BME280;4950;46.042;14.472;2023-05-01T06:56:38;98102.97;;;13.12;62.69
9822;BME280;4950;46.042;14.472;2023-05-01T06:59:05;98102.44;;;13.16;62.36
9822;BME280;4950;46.042;14.472;2023-05-01T07:01:31;98106.03;;;13.15;63.08
9822;BME280;4950;46.042;14.472;2023-05-01T07:03:58;98103.72;;;13.27;62.75
9822;BME280;4950;46.042;14.472;2023-05-01T07:06:24;98098.91;;;13.24;62.20
9822;BME280;4950;46.042;14.472;2023-05-01T07:08:51;98100.81;;;13.30;62.31
9822;BME280;4950;46.042;14.472;2023-05-01T07:11:18;98093.91;;;13.44;62.19
9822;BME280;4950;46.042;14.472;2023-05-01T07:13:46;98095.59;;;13.52;61.61
9822;BME280;4950;46.042;14.472;2023-05-01T07:16:13;98094.97;;;13.78;60.03
9822;BME280;4950;46.042;14.472;2023-05-01T07:18:39;98089.38;;;13.81;60.13
9822;BME280;4950;46.042;14.472;2023-05-01T07:21:06;98092.84;;;13.88;59.60
9822;BME280;4950;46.042;14.472;2023-05-01T07:23:34;98094.72;;;13.94;59.47
9822;BME280;4950;46.042;14.472;2023-05-01T07:26:00;98090.91;;;13.97;59.31
9822;BME280;4950;46.042;14.472;2023-05-01T07:28:28;98085.91;;;14.02;59.11
9822;BME280;4950;46.042;14.472;2023-05-01T07:30:56;98086.91;;;14.01;57.03
9822;BME280;4950;46.042;14.472;2023-05-01T07:33:23;98080.31;;;14.05;56.18
9822;BME280;4950;46.042;14.472;2023-05-01T07:35:50;98084.75;;;14.11;56.30
9822;BME280;4950;46.042;14.472;2023-05-01T07:38:16;98081.59;;;14.16;55.70
9822;BME280;4950;46.042;14.472;2023-05-01T07:40:43;98083.63;;;14.20;54.87
9822;BME280;4950;46.042;14.472;2023-05-01T07:43:10;98081.63;;;14.22;54.56
9822;BME280;4950;46.042;14.472;2023-05-01T07:45:37;98086.94;;;14.36;55.46
9822;BME280;4950;46.042;14.472;2023-05-01T07:48:05;98093.38;;;14.40;57.48
9822;BME280;4950;46.042;14.472;2023-05-01T07:50:31;98099.28;;;14.20;58.23
9822;BME280;4950;46.042;14.472;2023-05-01T07:52:58;98102.31;;;14.24;58.28
9822;BME280;4950;46.042;14.472;2023-05-01T07:55:25;98104.75;;;14.26;58.66
9822;BME280;4950;46.042;14.472;2023-05-01T07:57:51;98105.75;;;14.25;57.76
9822;BME280;4950;46.042;14.472;2023-05-01T08:00:18;98106.44;;;14.12;58.02
9822;BME280;4950;46.042;14.472;2023-05-01T08:02:45;98102.88;;;14.19;58.54
9822;BME280;4950;46.042;14.472;2023-05-01T08:05:13;98107.06;;;14.14;58.83
9822;BME280;4950;46.042;14.472;2023-05-01T08:07:40;98112.06;;;14.09;59.13
9822;BME280;4950;46.042;14.472;2023-05-01T08:10:07;98108.66;;;14.08;59.34
9822;BME280;4950;46.042;14.472;2023-05-01T08:12:34;98111.34;;;14.21;59.56
9822;BME280;4950;46.042;14.472;2023-05-01T08:15:00;98117.03;;;14.03;60.93
9822;BME280;4950;46.042;14.472;2023-05-01T08:17:27;98118.59;;;13.98;61.04
9822;BME280;4950;46.042;14.472;2023-05-01T08:19:54;98116.38;;;13.95;61.24
9822;BME280;4950;46.042;14.472;2023-05-01T08:22:22;98122.16;;;13.90;60.61
9822;BME280;4950;46.042;14.472;2023-05-01T08:24:49;98112.13;;;13.87;60.59
9822;BME280;4950;46.042;14.472;2023-05-01T08:27:16;98109.88;;;13.84;61.43
9822;BME280;4950;46.042;14.472;2023-05-01T08:29:43;98113.53;;;13.90;61.42
9822;BME280;4950;46.042;14.472;2023-05-01T08:32:09;98108.28;;;13.83;62.09
9822;BME280;4950;46.042;14.472;2023-05-01T08:34:36;98106.94;;;13.94;61.53
9822;BME280;4950;46.042;14.472;2023-05-01T08:37:02;98104.31;;;13.94;62.13
9822;BME280;4950;46.042;14.472;2023-05-01T08:39:30;98108.59;;;14.01;60.65
9822;BME280;4950;46.042;14.472;2023-05-01T08:41:58;98110.88;;;14.11;60.17
9822;BME280;4950;46.042;14.472;2023-05-01T08:44:25;98110.94;;;14.18;60.18
9822;BME280;4950;46.042;14.472;2023-05-01T08:46:59;98109.13;;;14.18;60.57
9822;BME280;4950;46.042;14.472;2023-05-01T08:49:32;98113.41;;;14.33;59.11
9822;BME280;4950;46.042;14.472;2023-05-01T08:52:01;98107.75;;;14.29;58.40
9822;BME280;4950;46.042;14.472;2023-05-01T08:54:30;98107.03;;;14.42;58.54
9822;BME280;4950;46.042;14.472;2023-05-01T08:57:00;98113.25;;;14.41;58.33
9822;BME280;4950;46.042;14.472;2023-05-01T08:59:29;98104.63;;;14.40;58.15
9822;BME280;4950;46.042;14.472;2023-05-01T09:01:59;98103.22;;;14.45;57.72
9822;BME280;4950;46.042;14.472;2023-05-01T09:04:28;98104.88;;;14.52;58.32
9822;BME280;4950;46.042;14.472;2023-05-01T09:06:57;98104.50;;;14.55;58.90
9822;BME280;4950;46.042;14.472;2023-05-01T09:09:25;98099.72;;;14.59;58.70
9822;BME280;4950;46.042;14.472;2023-05-01T09:11:53;98109.25;;;14.80;58.18
9822;BME280;4950;46.042;14.472;2023-05-01T09:14:22;98103.88;;;14.95;57.34
9822;BME280;4950;46.042;14.472;2023-05-01T09:16:48;98100.09;;;15.11;57.24
9822;BME280;4950;46.042;14.472;2023-05-01T09:19:15;98103.13;;;15.21;56.44
9822;BME280;4950;46.042;14.472;2023-05-01T09:21:42;98102.94;;;15.23;54.33
9822;BME280;4950;46.042;14.472;2023-05-01T09:24:08;98103.53;;;15.25;55.08
9822;BME280;4950;46.042;14.472;2023-05-01T09:26:38;98095.53;;;15.39;55.21
9822;BME280;4950;46.042;14.472;2023-05-01T09:29:07;98091.72;;;15.49;54.99
9822;BME280;4950;46.042;14.472;2023-05-01T09:31:35;98092.53;;;15.69;54.74
9822;BME280;4950;46.042;14.472;2023-05-01T09:34:03;98088.72;;;15.78;55.09
9822;BME280;4950;46.042;14.472;2023-05-01T09:36:31;98085.28;;;15.85;54.15
9822;BME280;4950;46.042;14.472;2023-05-01T09:38:59;98080.28;;;15.90;53.20
9822;BME280;4950;46.042;14.472;2023-05-01T09:41:26;98088.09;;;16.03;53.65
9822;BME280;4950;46.042;14.472;2023-05-01T09:43:54;98085.44;;;16.23;53.03
9822;BME280;4950;46.042;14.472;2023-05-01T09:46:23;98086.63;;;16.34;51.18
9822;BME280;4950;46.042;14.472;2023-05-01T09:48:54;98083.19;;;16.33;51.52
9822;BME280;4950;46.042;14.472;2023-05-01T09:51:25;98083.81;;;16.29;52.21
9822;BME280;4950;46.042;14.472;2023-05-01T09:53:53;98081.56;;;16.32;52.61
9822;BME280;4950;46.042;14.472;2023-05-01T09:56:20;98081.56;;;16.39;52.65
9822;BME280;4950;46.042;14.472;2023-05-01T09:58:49;98079.13;;;16.44;51.37
9822;BME280;4950;46.042;14.472;2023-05-01T10:01:16;98077.25;;;16.65;50.19
9822;BME280;4950;46.042;14.472;2023-05-01T10:03:45;98081.25;;;16.74;50.25
9822;BME280;4950;46.042;14.472;2023-05-01T10:06:25;98072.56;;;16.73;50.74
9822;BME280;4950;46.042;14.472;2023-05-01T10:08:53;98063.66;;;16.81;50.54
9822;BME280;4950;46.042;14.472;2023-05-01T10:11:20;98065.88;;;16.84;50.99
9822;BME280;4950;46.042;14.472;2023-05-01T10:14:04;98055.94;;;17.00;51.29
9822;BME280;4950;46.042;14.472;2023-05-01T10:16:33;98054.59;;;17.15;50.84
9822;BME280;4950;46.042;14.472;2023-05-01T10:19:02;98053.88;;;17.33;49.82
9822;BME280;4950;46.042;14.472;2023-05-01T10:21:29;98053.56;;;17.48;49.56
9822;BME280;4950;46.042;14.472;2023-05-01T10:23:56;98046.88;;;17.52;48.80
9822;BME280;4950;46.042;14.472;2023-05-01T10:26:23;98046.22;;;17.57;48.25
9822;BME280;4950;46.042;14.472;2023-05-01T10:28:51;98050.47;;;17.58;48.45
9822;BME280;4950;46.042;14.472;2023-05-01T10:31:17;98040.94;;;17.64;48.87
9822;BME280;4950;46.042;14.472;2023-05-01T10:33:45;98044.16;;;17.66;49.19
9822;BME280;4950;46.042;14.472;2023-05-01T10:36:16;98031.16;;;17.71;49.41
9822;BME280;4950;46.042;14.472;2023-05-01T10:38:45;98028.63;;;17.83;47.76
9822;BME280;4950;46.042;14.472;2023-05-01T10:41:13;98031.25;;;17.83;47.87
9822;BME280;4950;46.042;14.472;2023-05-01T10:43:40;98031.69;;;17.80;47.15
9822;BME280;4950;46.042;14.472;2023-05-01T10:46:25;98029.47;;;17.76;47.58
9822;BME280;4950;46.042;14.472;2023-05-01T10:48:55;98027.03;;;17.82;47.61
9822;BME280;4950;46.042;14.472;2023-05-01T10:51:23;98027.25;;;17.80;47.69
9822;BME280;4950;46.042;14.472;2023-05-01T10:54:20;98024.19;;;17.83;47.76
9822;BME280;4950;46.042;14.472;2023-05-01T10:56:48;98022.38;;;17.84;47.62
9822;BME280;4950;46.042;14.472;2023-05-01T10:59:14;98015.59;;;17.94;47.06
9822;BME280;4950;46.042;14.472;2023-05-01T11:01:41;98010.84;;;17.85;46.56
9822;BME280;4950;46.042;14.472;2023-05-01T11:07:17;98012.03;;;17.89;48.03
9822;BME280;4950;46.042;14.472;2023-05-01T11:09:44;98008.97;;;17.92;47.23
9822;BME280;4950;46.042;14.472;2023-05-01T11:12:12;98002.97;;;17.85;47.74
9822;BME280;4950;46.042;14.472;2023-05-01T11:15:01;97997.72;;;17.85;47.40
9822;BME280;4950;46.042;14.472;2023-05-01T11:17:44;97997.09;;;17.83;46.99
9822;BME280;4950;46.042;14.472;2023-05-01T11:20:12;97992.63;;;17.90;47.58
9822;BME280;4950;46.042;14.472;2023-05-01T11:22:43;97985.28;;;17.99;46.92
9822;BME280;4950;46.042;14.472;2023-05-01T11:25:18;97988.22;;;18.02;48.38
9822;BME280;4950;46.042;14.472;2023-05-01T11:27:46;97983.94;;;18.08;47.27
9822;BME280;4950;46.042;14.472;2023-05-01T11:30:13;97983.28;;;18.12;47.88
9822;BME280;4950;46.042;14.472;2023-05-01T11:32:42;97981.00;;;18.16;47.46
9822;BME280;4950;46.042;14.472;2023-05-01T11:35:15;97968.22;;;18.20;47.54
9822;BME280;4950;46.042;14.472;2023-05-01T11:37:44;97974.66;;;18.24;47.49
9822;BME280;4950;46.042;14.472;2023-05-01T11:40:18;97969.53;;;18.29;47.28
9822;BME280;4950;46.042;14.472;2023-05-01T11:42:46;97964.44;;;18.34;46.48
9822;BME280;4950;46.042;14.472;2023-05-01T11:45:13;97968.34;;;18.43;46.81
9822;BME280;4950;46.042;14.472;2023-05-01T11:47:40;97964.13;;;18.42;46.53
9822;BME280;4950;46.042;14.472;2023-05-01T11:50:08;97965.50;;;18.45;46.83
9822;BME280;4950;46.042;14.472;2023-05-01T11:52:44;97967.38;;;18.56;46.53
9822;BME280;4950;46.042;14.472;2023-05-01T11:55:12;97963.59;;;18.52;45.96
9822;BME280;4950;46.042;14.472;2023-05-01T11:57:46;97959.25;;;18.58;46.34
9822;BME280;4950;46.042;14.472;2023-05-01T12:00:14;97951.94;;;18.60;46.73
9822;BME280;4950;46.042;14.472;2023-05-01T12:02:54;97950.84;;;18.67;46.68
9822;BME280;4950;46.042;14.472;2023-05-01T12:05:22;97950.69;;;18.81;45.41
9822;BME280;4950;46.042;14.472;2023-05-01T12:07:50;97945.31;;;18.87;45.31
9822;BME280;4950;46.042;14.472;2023-05-01T12:10:17;97953.31;;;18.92;44.86
9822;BME280;4950;46.042;14.472;2023-05-01T12:12:43;97948.94;;;18.86;45.88
9822;BME280;4950;46.042;14.472;2023-05-01T12:15:10;97948.63;;;18.83;45.87
9822;BME280;4950;46.042;14.472;2023-05-01T12:17:37;97940.72;;;18.83;46.34
9822;BME280;4950;46.042;14.472;2023-05-01T12:20:05;97943.09;;;18.84;45.67
9822;BME280;4950;46.042;14.472;2023-05-01T12:22:32;97936.38;;;18.88;46.47
9822;BME280;4950;46.042;14.472;2023-05-01T12:25:00;97935.22;;;18.96;46.34
9822;BME280;4950;46.042;14.472;2023-05-01T12:27:28;97925.06;;;19.00;46.37
9822;BME280;4950;46.042;14.472;2023-05-01T12:29:56;97920.84;;;18.99;46.61
9822;BME280;4950;46.042;14.472;2023-05-01T12:32:29;97921.19;;;19.02;44.76
9822;BME280;4950;46.042;14.472;2023-05-01T12:34:57;97916.25;;;19.06;45.37
9822;BME280;4950;46.042;14.472;2023-05-01T12:37:29;97911.69;;;19.13;44.99
9822;BME280;4950;46.042;14.472;2023-05-01T12:39:57;97912.03;;;19.28;44.21
9822;BME280;4950;46.042;14.472;2023-05-01T12:42:25;97910.78;;;19.19;44.52
9822;BME280;4950;46.042;14.472;2023-05-01T12:44:58;97909.63;;;19.15;45.50
9822;BME280;4950;46.042;14.472;2023-05-01T12:47:26;97904.38;;;19.15;46.39
9822;BME280;4950;46.042;14.472;2023-05-01T12:50:01;97905.72;;;19.18;46.79
9822;BME280;4950;46.042;14.472;2023-05-01T12:52:28;97904.28;;;19.22;46.79
9822;BME280;4950;46.042;14.472;2023-05-01T12:55:01;97900.94;;;19.26;46.50
9822;BME280;4950;46.042;14.472;2023-05-01T12:57:30;97897.84;;;19.29;46.00
9822;BME280;4950;46.042;14.472;2023-05-01T13:00:01;97900.81;;;19.33;45.65
9822;BME280;4950;46.042;14.472;2023-05-01T13:02:31;97893.59;;;19.40;45.64
9822;BME280;4950;46.042;14.472;2023-05-01T13:05:08;97892.09;;;19.44;45.17
9822;BME280;4950;46.042;14.472;2023-05-01T13:07:35;97895.19;;;19.53;45.12
9822;BME280;4950;46.042;14.472;2023-05-01T13:10:02;97894.72;;;19.56;44.79
9822;BME280;4950;46.042;14.472;2023-05-01T13:12:32;97886.03;;;19.56;45.40
9822;BME280;4950;46.042;14.472;2023-05-01T13:14:59;97887.50;;;19.63;45.76
9822;BME280;4950;46.042;14.472;2023-05-01T13:17:26;97880.88;;;19.72;45.79
9822;BME280;4950;46.042;14.472;2023-05-01T13:19:54;97878.91;;;19.68;45.26
9822;BME280;4950;46.042;14.472;2023-05-01T13:22:28;97879.28;;;19.71;45.55